Time;durP1;ratioP1;P1;durP2;ratioP2;P2;SDS_P1;SDS_P2;PMS_P1;PMS_P2;Temp;Humidity;BMP_temperature;BMP_pressure;BME280_temperature;BME280_humidity;BME280_pressure;Samples;Min_cycle;Max_cycle;Signal;HPM_P1;HPM_P2
2022/03/20 00:00:05;;;;;;;29.65;19.35;;;;;;;5.24;56.73;100660.25;5065237;28;20028;-77
2022/03/20 00:02:33;;;;;;;27.63;18.48;;;;;;;5.17;56.79;100641.56;5060637;28;20024;-77
2022/03/20 00:05:00;;;;;;;31.48;18.70;;;;;;;5.21;56.79;100647.34;5054226;28;20036;-77
2022/03/20 00:07:26;;;;;;;31.17;18.55;;;;;;;5.15;57.31;100648.03;5054654;28;20048;-77
2022/03/20 00:09:52;;;;;;;33.05;20.98;;;;;;;5.18;56.83;100647.66;5061726;28;20419;-77
2022/03/20 00:12:17;;;;;;;32.30;19.58;;;;;;;5.17;57.39;100646.88;5059351;28;20037;-77
2022/03/20 00:14:43;;;;;;;27.65;18.45;;;;;;;5.15;57.76;100640.09;5061228;28;20480;-78
2022/03/20 00:17:08;;;;;;;29.80;19.67;;;;;;;5.06;56.62;100623.41;5047476;28;20096;-77
2022/03/20 00:19:33;;;;;;;25.38;17.38;;;;;;;5.18;57.55;100634.44;5056767;28;20037;-77
2022/03/20 00:21:59;;;;;;;27.45;18.30;;;;;;;5.08;57.37;100624.06;5058208;28;20031;-77
2022/03/20 00:24:24;;;;;;;33.28;19.17;;;;;;;5.12;56.97;100621.88;5029277;28;20033;-78
2022/03/20 00:26:56;;;;;;;28.58;19.33;;;;;;;5.13;57.34;100621.72;5054782;28;20483;-77
2022/03/20 00:29:25;;;;;;;29.50;18.15;;;;;;;5.13;56.78;100627.00;5057422;28;20555;-77
2022/03/20 00:31:50;;;;;;;32.13;18.42;;;;;;;5.10;56.86;100626.53;5054488;28;20036;-77
2022/03/20 00:34:15;;;;;;;26.35;18.23;;;;;;;5.10;57.48;100621.22;5084549;28;20033;-77
2022/03/20 00:36:41;;;;;;;32.80;18.73;;;;;;;5.11;57.03;100623.69;5051162;28;20041;-77
2022/03/20 00:39:06;;;;;;;28.40;17.52;;;;;;;5.04;56.60;100613.97;5062549;28;20033;-77
2022/03/20 00:41:31;;;;;;;29.80;18.35;;;;;;;4.99;57.11;100608.38;5043278;28;20484;-77
2022/03/20 00:43:58;;;;;;;25.85;17.85;;;;;;;5.05;57.22;100612.97;5047321;28;20089;-77
2022/03/20 00:46:24;;;;;;;28.70;18.40;;;;;;;5.06;57.43;100604.06;5056079;28;20036;-77
2022/03/20 00:48:49;;;;;;;28.58;18.20;;;;;;;5.01;57.11;100596.63;5061321;28;20037;-77
2022/03/20 00:51:15;;;;;;;31.65;18.75;;;;;;;5.01;56.96;100588.69;5042574;28;20123;-77
2022/03/20 00:53:40;;;;;;;29.17;18.85;;;;;;;5.00;56.94;100597.59;5054518;28;20114;-77
2022/03/20 00:56:05;;;;;;;31.98;18.40;;;;;;;4.98;56.99;100593.50;5060098;28;20063;-77
2022/03/20 00:58:31;;;;;;;29.58;18.40;;;;;;;4.95;56.90;100585.88;5055224;28;20202;-77
2022/03/20 01:00:56;;;;;;;30.50;19.38;;;;;;;4.97;56.75;100589.19;5046300;28;20600;-77
2022/03/20 01:03:21;;;;;;;30.60;18.17;;;;;;;4.88;57.20;100569.88;5047421;28;20032;-77
2022/03/20 01:05:46;;;;;;;29.42;18.63;;;;;;;4.85;56.81;100579.97;5025626;28;20511;-77
2022/03/20 01:08:12;;;;;;;25.45;17.63;;;;;;;4.94;56.49;100579.78;5039807;28;20085;-77
2022/03/20 01:10:38;;;;;;;29.10;18.85;;;;;;;4.91;57.26;100584.59;5059460;28;20104;-77
2022/03/20 01:13:03;;;;;;;28.50;18.38;;;;;;;4.94;56.79;100586.88;5056769;28;20036;-77
2022/03/20 01:15:28;;;;;;;28.58;19.38;;;;;;;4.82;57.05;100575.84;5056038;28;20037;-77
2022/03/20 01:17:54;;;;;;;31.05;18.90;;;;;;;4.85;57.22;100574.69;5055782;28;20043;-77
2022/03/20 01:20:19;;;;;;;34.17;19.88;;;;;;;4.80;56.54;100569.06;5060416;28;20388;-77
2022/03/20 01:22:45;;;;;;;31.00;17.95;;;;;;;4.75;57.52;100566.09;5046842;28;20492;-77
2022/03/20 01:25:10;;;;;;;25.77;18.50;;;;;;;4.84;57.21;100581.78;5058311;28;20067;-77
2022/03/20 01:27:36;;;;;;;26.38;17.70;;;;;;;4.78;57.26;100569.25;5058250;28;20070;-77
2022/03/20 01:30:04;;;;;;;28.27;17.73;;;;;;;4.77;57.02;100572.03;5059708;28;20044;-77
2022/03/20 01:32:30;;;;;;;26.45;17.83;;;;;;;4.76;56.87;100563.28;5055329;28;20428;-77
2022/03/20 01:34:55;;;;;;;28.42;18.52;;;;;;;4.82;57.25;100572.38;5058597;28;20100;-77
2022/03/20 01:37:22;;;;;;;27.50;17.92;;;;;;;4.80;56.44;100563.78;5068577;28;20056;-77
2022/03/20 01:39:47;;;;;;;28.60;18.20;;;;;;;4.75;57.35;100564.28;5065362;28;20245;-77
2022/03/20 01:42:12;;;;;;;27.02;17.90;;;;;;;4.71;56.95;100556.84;5064161;28;20476;-77
2022/03/20 01:44:38;;;;;;;26.23;16.70;;;;;;;4.75;57.43;100560.81;5062165;28;20126;-77
2022/03/20 01:47:05;;;;;;;27.73;18.90;;;;;;;4.74;57.26;100565.25;5062163;28;20131;-77
2022/03/20 01:49:31;;;;;;;30.10;19.02;;;;;;;4.74;56.95;100552.03;5071010;28;20036;-77
2022/03/20 01:52:13;;;;;;;29.80;18.60;;;;;;;4.71;57.13;100556.84;5067104;28;20029;-77
2022/03/20 01:54:44;;;;;;;34.72;18.15;;;;;;;4.60;57.12;100528.94;5065850;28;20068;-77
2022/03/20 01:57:12;;;;;;;29.48;17.83;;;;;;;4.69;56.79;100538.50;5069557;28;20492;-77
2022/03/20 01:59:37;;;;;;;30.33;18.42;;;;;;;4.68;57.23;100536.84;5071665;28;20035;-77
2022/03/20 02:02:04;;;;;;;27.20;16.45;;;;;;;4.70;56.84;100539.31;5060778;28;20036;-77
2022/03/20 02:04:30;;;;;;;28.15;17.67;;;;;;;4.69;57.09;100535.88;5068262;28;20476;-77
2022/03/20 02:06:56;;;;;;;23.80;16.00;;;;;;;4.64;56.88;100524.97;5052275;28;20106;-77
2022/03/20 02:09:21;;;;;;;29.75;17.33;;;;;;;4.66;57.04;100530.91;5033320;28;20492;-77
2022/03/20 02:11:47;;;;;;;23.95;16.48;;;;;;;4.66;57.21;100535.38;5058292;28;20045;-78
2022/03/20 02:14:13;;;;;;;30.50;19.52;;;;;;;4.63;57.06;100530.44;5062624;28;20027;-77
2022/03/20 02:16:39;;;;;;;28.27;17.85;;;;;;;4.54;57.15;100517.22;5060325;28;20476;-77
2022/03/20 02:19:07;;;;;;;28.98;17.20;;;;;;;4.56;57.39;100515.22;5053335;28;20494;-77
2022/03/20 02:21:40;;;;;;;23.98;17.58;;;;;;;4.57;57.22;100522.16;5066716;28;20444;-77
2022/03/20 02:24:34;;;;;;;25.13;16.77;;;;;;;4.47;57.50;100500.41;5068730;28;20094;-77
2022/03/20 02:27:14;;;;;;;23.63;15.52;;;;;;;4.49;57.64;100506.34;5063900;28;20029;-77
2022/03/20 02:29:41;;;;;;;28.20;17.40;;;;;;;4.48;57.85;100509.13;5066466;28;20028;-77
2022/03/20 02:32:08;;;;;;;26.85;16.15;;;;;;;4.40;57.53;100494.13;5063085;28;20036;-77
2022/03/20 02:34:34;;;;;;;28.85;18.50;;;;;;;4.49;57.47;100505.50;5036630;28;20025;-77
2022/03/20 02:37:03;;;;;;;26.23;17.38;;;;;;;4.39;57.99;100495.09;5061941;28;20028;-77
2022/03/20 02:39:30;;;;;;;27.75;17.50;;;;;;;4.44;57.40;100492.78;5062896;28;20036;-77
2022/03/20 02:41:59;;;;;;;35.40;16.98;;;;;;;4.47;57.44;100499.56;5068252;28;20021;-77
2022/03/20 02:44:48;;;;;;;25.85;17.02;;;;;;;4.39;57.76;100500.38;5063478;28;20054;-77
2022/03/20 02:47:13;;;;;;;25.75;17.00;;;;;;;4.44;57.81;100500.72;5057109;28;20032;-77
2022/03/20 02:49:39;;;;;;;31.63;16.65;;;;;;;4.39;57.76;100497.75;5075283;28;20035;-77
2022/03/20 02:52:06;;;;;;;24.13;17.13;;;;;;;4.36;57.46;100481.41;5060438;28;20024;-77
2022/03/20 02:54:32;;;;;;;28.52;18.52;;;;;;;4.30;58.22;100477.59;5043120;28;20033;-77
2022/03/20 02:56:57;;;;;;;26.85;16.60;;;;;;;4.34;58.09;100484.25;5058203;28;20029;-78
2022/03/20 02:59:22;;;;;;;28.08;16.60;;;;;;;4.35;57.62;100488.50;5050396;28;20028;-77
2022/03/20 03:01:48;;;;;;;28.15;17.10;;;;;;;4.31;57.67;100489.84;5034347;28;20032;-77
2022/03/20 03:04:13;;;;;;;26.90;16.08;;;;;;;4.22;57.37;100472.34;5060704;28;20112;-77
2022/03/20 03:06:38;;;;;;;28.05;16.85;;;;;;;4.33;57.67;100495.78;5065124;28;20038;-77
2022/03/20 03:11:48;;;;;;;27.67;16.77;;;;;;;4.28;58.15;100487.53;5062238;28;20078;-77
2022/03/20 03:17:10;;;;;;;29.15;17.60;;;;;;;4.16;58.11;100475.66;5038644;28;20519;-77
2022/03/20 03:19:36;;;;;;;26.58;16.33;;;;;;;4.17;58.39;100477.31;5060951;28;20041;-77
2022/03/20 03:22:02;;;;;;;28.92;17.80;;;;;;;4.13;58.38;100468.06;5032025;28;20036;-77
2022/03/20 03:24:28;;;;;;;26.02;16.92;;;;;;;4.19;58.32;100480.63;5056195;28;20032;-77
2022/03/20 03:26:53;;;;;;;26.67;17.75;;;;;;;4.11;58.31;100475.34;5057464;28;20037;-77
2022/03/20 03:29:19;;;;;;;30.63;17.42;;;;;;;4.19;58.57;100475.34;5043645;28;20032;-77
2022/03/20 03:31:44;;;;;;;26.20;17.38;;;;;;;4.18;58.19;100478.97;5044645;28;20036;-77
2022/03/20 03:36:54;;;;;;;27.38;17.20;;;;;;;4.05;58.21;100456.69;5058877;28;20082;-77
2022/03/20 03:39:19;;;;;;;27.95;17.95;;;;;;;4.06;58.19;100463.63;5057035;28;20032;-77
2022/03/20 03:41:44;;;;;;;27.70;16.85;;;;;;;4.02;58.09;100465.75;5047315;28;20028;-77
2022/03/20 03:44:10;;;;;;;29.27;19.05;;;;;;;3.97;57.93;100454.06;5040658;28;20111;-77
2022/03/20 03:46:35;;;;;;;27.08;17.58;;;;;;;3.97;58.40;100468.09;5044542;28;20040;-77
2022/03/20 03:49:01;;;;;;;27.10;17.90;;;;;;;3.98;58.24;100474.19;5059766;28;20480;-77
2022/03/20 03:51:26;;;;;;;29.15;18.90;;;;;;;3.98;58.70;100471.53;5059464;28;20409;-77
2022/03/20 03:53:51;;;;;;;32.22;17.88;;;;;;;3.92;58.13;100461.66;5049275;28;20040;-77
2022/03/20 03:56:19;;;;;;;29.25;18.13;;;;;;;3.91;58.95;100455.53;5062143;28;20090;-77
2022/03/20 03:58:44;;;;;;;28.30;16.90;;;;;;;3.87;58.52;100441.00;5086852;28;20492;-77
2022/03/20 04:01:10;;;;;;;25.52;16.67;;;;;;;3.92;58.56;100448.44;5047462;28;20041;-77
2022/03/20 04:03:35;;;;;;;28.85;17.77;;;;;;;3.87;58.51;100456.88;5058688;28;20067;-77
2022/03/20 04:06:04;;;;;;;31.00;18.10;;;;;;;3.88;58.25;100447.97;5055546;28;20033;-77
2022/03/20 04:08:29;;;;;;;27.77;18.15;;;;;;;3.89;58.37;100459.34;5057809;28;20467;-78
2022/03/20 04:10:55;;;;;;;27.52;17.40;;;;;;;3.85;57.93;100442.16;5046535;28;20028;-77
2022/03/20 04:13:20;;;;;;;27.98;17.23;;;;;;;3.75;58.22;100430.00;5059138;28;20131;-77
2022/03/20 04:15:46;;;;;;;28.90;17.90;;;;;;;3.84;58.16;100433.44;5061653;28;20040;-78
2022/03/20 04:18:12;;;;;;;30.30;18.30;;;;;;;3.82;58.28;100443.34;5043469;28;20030;-78
2022/03/20 04:20:37;;;;;;;25.48;16.83;;;;;;;3.85;58.53;100443.00;5060253;28;20037;-78
2022/03/20 04:25:47;;;;;;;26.48;17.13;;;;;;;3.88;58.12;100441.84;5056028;28;20036;-78
2022/03/20 04:28:12;;;;;;;28.10;17.85;;;;;;;3.90;58.01;100443.34;5058123;28;20029;-78
2022/03/20 04:30:37;;;;;;;29.65;18.10;;;;;;;3.89;58.41;100438.22;5059292;28;20042;-78
2022/03/20 04:33:02;;;;;;;27.02;17.88;;;;;;;3.86;57.99;100439.38;5060742;28;20113;-78
2022/03/20 04:35:28;;;;;;;31.60;19.25;;;;;;;3.87;58.38;100435.72;5057711;28;20029;-78
2022/03/20 04:37:55;;;;;;;28.58;17.90;;;;;;;3.89;57.83;100438.22;5057132;28;20491;-78
2022/03/20 04:40:21;;;;;;;30.83;17.02;;;;;;;3.85;58.27;100436.88;5047731;28;20124;-78
2022/03/20 04:42:46;;;;;;;27.92;17.55;;;;;;;3.87;58.12;100445.50;5052765;28;20025;-78
2022/03/20 04:45:13;;;;;;;30.92;18.60;;;;;;;3.84;57.86;100440.53;5055824;28;20029;-78
2022/03/20 04:58:36;;;;;;;26.48;17.10;;;;;;;3.72;58.99;100443.50;5044102;28;20420;-78
2022/03/20 05:01:02;;;;;;;27.73;18.00;;;;;;;3.73;58.25;100434.56;5060303;28;20020;-78
2022/03/20 05:03:30;;;;;;;31.13;18.17;;;;;;;3.71;58.22;100438.41;5056534;28;20047;-78
2022/03/20 05:05:56;;;;;;;30.52;19.00;;;;;;;3.71;58.25;100439.19;5056251;28;20121;-78
2022/03/20 05:08:21;;;;;;;30.45;18.73;;;;;;;3.69;58.09;100432.47;5055164;28;20512;-78
2022/03/20 05:13:31;;;;;;;29.63;18.60;;;;;;;3.70;57.63;100437.56;5041495;28;20063;-78
2022/03/20 05:15:57;;;;;;;26.17;17.42;;;;;;;3.65;58.30;100431.13;5055808;28;20048;-78
2022/03/20 05:18:23;;;;;;;28.92;18.00;;;;;;;3.69;57.95;100435.91;5045428;28;20029;-78
2022/03/20 05:20:51;;;;;;;30.98;20.27;;;;;;;3.63;58.30;100427.81;5059358;28;20021;-78
2022/03/20 05:23:16;;;;;;;32.40;18.98;;;;;;;3.57;58.43;100423.22;5061479;28;20047;-78
2022/03/20 05:25:42;;;;;;;31.77;18.05;;;;;;;3.56;58.16;100432.94;5073711;28;20049;-78
2022/03/20 05:28:08;;;;;;;33.58;19.50;;;;;;;3.51;58.69;100431.78;5056798;28;20055;-78
2022/03/20 05:30:33;;;;;;;30.88;19.65;;;;;;;3.44;58.30;100420.22;5055798;28;20036;-78
2022/03/20 05:32:59;;;;;;;32.75;19.70;;;;;;;3.43;58.76;100422.03;5057420;28;20029;-78
2022/03/20 05:35:25;;;;;;;33.50;19.02;;;;;;;3.40;58.59;100417.09;5063321;28;20372;-78
2022/03/20 05:37:51;;;;;;;39.83;19.98;;;;;;;3.43;58.70;100422.03;5039771;28;20028;-78
2022/03/20 05:40:17;;;;;;;27.30;18.30;;;;;;;3.37;58.70;100413.94;5054963;28;20044;-78
2022/03/20 05:42:43;;;;;;;33.28;20.00;;;;;;;3.41;59.12;100439.03;5044744;28;20042;-78
2022/03/20 05:45:11;;;;;;;26.35;17.48;;;;;;;3.41;58.72;100425.81;5054059;28;20025;-78
2022/03/20 05:47:43;;;;;;;30.38;18.65;;;;;;;3.42;58.40;100419.56;5056020;28;20128;-78
2022/03/20 05:50:09;;;;;;;31.80;19.77;;;;;;;3.37;58.71;100406.03;5076460;28;20033;-78
2022/03/20 05:52:35;;;;;;;33.05;19.42;;;;;;;3.34;58.74;100399.28;5055194;28;20459;-78
2022/03/20 05:55:04;;;;;;;36.83;20.45;;;;;;;3.37;59.11;100398.13;5059171;28;20131;-78
2022/03/20 06:00:27;;;;;;;31.85;20.25;;;;;;;3.43;58.68;100413.31;5059579;28;20035;-79
2022/03/20 06:02:52;;;;;;;30.73;19.55;;;;;;;3.44;58.98;100420.22;5061145;28;20028;-80
2022/03/20 06:05:18;;;;;;;26.83;17.85;;;;;;;3.42;58.89;100415.13;5066562;28;20032;-79
2022/03/20 06:07:55;;;;;;;31.30;19.67;;;;;;;3.42;58.85;100415.13;5063515;28;20083;-81
2022/03/20 06:10:20;;;;;;;32.05;20.60;;;;;;;3.52;59.01;100434.25;5049421;28;20441;-79
2022/03/20 06:12:46;;;;;;;36.33;20.17;;;;;;;3.55;58.97;100427.84;5056230;28;20024;-78
2022/03/20 06:15:13;;;;;;;34.75;20.30;;;;;;;3.56;58.97;100422.38;5059154;28;20119;-78
2022/03/20 06:17:45;;;;;;;36.70;20.40;;;;;;;3.54;58.39;100413.81;5054429;28;20132;-79
2022/03/20 06:20:12;;;;;;;31.58;19.98;;;;;;;3.59;57.89;100424.69;5057221;28;20089;-79
2022/03/20 06:22:37;;;;;;;35.55;19.52;;;;;;;3.63;58.34;100428.66;5057629;28;20373;-79
2022/03/20 06:25:08;;;;;;;34.85;20.38;;;;;;;3.62;58.61;100428.81;5060929;28;20093;-78
2022/03/20 06:27:48;;;;;;;38.83;21.27;;;;;;;3.61;58.58;100429.81;5061599;28;20373;-79
2022/03/20 06:30:15;;;;;;;31.88;19.90;;;;;;;3.66;58.55;100430.97;5059997;28;20036;-79
2022/03/20 06:32:41;;;;;;;33.08;20.98;;;;;;;3.70;58.68;100436.75;5054945;28;20033;-79
2022/03/20 06:35:08;;;;;;;34.90;20.70;;;;;;;3.69;58.13;100427.19;5056711;28;20028;-79
2022/03/20 06:37:43;;;;;;;34.88;19.17;;;;;;;3.69;58.31;100427.19;5063691;28;20079;-79
2022/03/20 06:40:09;;;;;;;38.75;21.75;;;;;;;3.72;58.71;100426.84;5046467;28;20039;-79
2022/03/20 06:42:35;;;;;;;31.23;19.90;;;;;;;3.79;58.72;100439.22;5059418;28;20366;-79
2022/03/20 06:45:03;;;;;;;33.22;21.02;;;;;;;3.78;58.83;100432.28;5063558;28;20085;-79
2022/03/20 06:47:32;;;;;;;36.22;20.38;;;;;;;3.79;58.64;100436.59;5048176;28;20046;-79
2022/03/20 06:49:58;;;;;;;31.60;19.85;;;;;;;3.84;58.65;100424.69;5050493;28;20036;-79
2022/03/20 06:52:23;;;;;;;33.65;20.83;;;;;;;3.86;58.59;100434.09;5038846;28;20384;-79
2022/03/20 06:54:49;;;;;;;30.58;19.50;;;;;;;3.93;58.51;100447.47;5047061;28;20032;-79
2022/03/20 06:57:18;;;;;;;39.22;22.95;;;;;;;3.84;58.77;100422.06;5058709;28;20392;-79
2022/03/20 06:59:43;;;;;;;37.58;20.50;;;;;;;3.91;58.58;100431.75;5047278;28;20105;-79
2022/03/20 07:02:08;;;;;;;33.42;20.42;;;;;;;3.99;58.79;100446.78;5054157;28;20160;-79
2022/03/20 07:04:34;;;;;;;34.67;20.40;;;;;;;4.00;58.73;100449.25;5057690;28;20027;-79
2022/03/20 07:06:59;;;;;;;39.15;21.58;;;;;;;3.96;58.42;100437.38;5048101;28;20603;-79
2022/03/20 07:09:25;;;;;;;31.27;19.77;;;;;;;4.05;58.65;100439.03;5031055;28;20044;-79
2022/03/20 07:11:50;;;;;;;36.40;20.55;;;;;;;4.00;59.08;100433.41;5059350;28;20486;-79
2022/03/20 07:14:15;;;;;;;35.97;21.33;;;;;;;4.01;59.04;100432.44;5059026;28;20036;-79
2022/03/20 07:16:43;;;;;;;37.38;21.58;;;;;;;4.06;58.68;100443.31;5059807;28;20036;-79
2022/03/20 07:19:09;;;;;;;32.78;20.70;;;;;;;4.08;58.64;100420.22;5060639;28;20029;-79
2022/03/20 07:21:34;;;;;;;38.67;22.55;;;;;;;4.13;58.92;100431.06;5061786;28;20023;-79
2022/03/20 07:24:02;;;;;;;31.60;21.23;;;;;;;4.19;58.82;100432.22;5062983;28;20480;-79
2022/03/20 07:29:29;;;;;;;32.88;20.98;;;;;;;4.24;58.59;100430.72;5056190;28;20036;-79
2022/03/20 07:31:55;;;;;;;35.50;22.27;;;;;;;4.18;58.72;100409.44;5064974;28;20032;-79
2022/03/20 07:34:21;;;;;;;36.28;21.83;;;;;;;4.28;58.71;100426.75;5045668;28;20032;-79
2022/03/20 07:36:46;;;;;;;36.10;21.30;;;;;;;4.31;58.51;100430.88;5048505;28;20494;-79
2022/03/20 07:39:11;;;;;;;39.30;22.48;;;;;;;4.39;58.66;100431.66;5056726;28;20071;-79
2022/03/20 07:41:37;;;;;;;34.65;21.80;;;;;;;4.38;58.41;100423.91;5063489;28;20036;-79
2022/03/20 07:44:03;;;;;;;36.92;22.08;;;;;;;4.40;57.96;100411.34;5063501;28;20119;-79
2022/03/20 07:46:28;;;;;;;42.28;24.00;;;;;;;4.44;58.01;100410.84;5050409;28;20021;-79
2022/03/20 07:48:54;;;;;;;34.42;22.73;;;;;;;4.48;58.46;100409.50;5055112;28;20059;-79
2022/03/20 07:51:20;;;;;;;34.95;22.10;;;;;;;4.57;58.29;100418.22;5062393;28;20388;-79
2022/03/20 07:53:45;;;;;;;42.22;23.48;;;;;;;4.58;58.33;100409.31;5060921;28;21550;-79
2022/03/20 07:56:12;;;;;;;34.38;21.80;;;;;;;4.66;57.72;100413.72;5061932;28;20056;-79
2022/03/20 07:58:37;;;;;;;39.50;23.33;;;;;;;4.70;57.89;100410.56;5050984;28;20035;-79
2022/03/20 08:01:02;;;;;;;41.45;23.40;;;;;;;4.67;57.95;100400.34;5059723;28;20036;-79
2022/03/20 08:03:28;;;;;;;36.40;22.42;;;;;;;4.76;58.28;100403.78;5064953;28;20067;-79
2022/03/20 08:05:53;;;;;;;40.13;24.05;;;;;;;4.73;58.39;100399.66;5047278;28;20555;-79
2022/03/20 08:08:18;;;;;;;40.67;23.25;;;;;;;4.85;58.38;100395.59;5058809;28;20031;-79
2022/03/20 08:10:44;;;;;;;34.42;22.30;;;;;;;4.88;57.99;100400.56;5061034;28;20028;-79
2022/03/20 08:13:10;;;;;;;39.95;23.73;;;;;;;4.91;57.36;100389.66;5060385;28;20035;-79
2022/03/20 08:15:37;;;;;;;37.28;22.90;;;;;;;4.97;57.58;100390.75;5063725;28;20021;-79
2022/03/20 08:18:04;;;;;;;39.20;23.33;;;;;;;5.00;57.68;100387.78;5064802;28;20043;-79
2022/03/20 08:20:30;;;;;;;38.22;22.83;;;;;;;4.93;57.21;100378.88;5063629;28;20060;-79
2022/03/20 08:22:56;;;;;;;42.70;24.13;;;;;;;4.99;57.34;100373.72;5061278;28;20076;-79
2022/03/20 08:25:22;;;;;;;40.03;24.05;;;;;;;4.99;57.34;100370.25;5051325;28;20037;-79
2022/03/20 08:27:49;;;;;;;40.33;24.65;;;;;;;5.09;57.01;100376.13;5064087;28;20114;-79
2022/03/20 08:30:15;;;;;;;37.38;22.77;;;;;;;5.20;56.59;100384.47;5062070;28;20029;-79
2022/03/20 08:32:47;;;;;;;41.42;26.45;;;;;;;5.26;57.04;100385.63;5066362;28;20115;-79
2022/03/20 08:35:14;;;;;;;45.28;24.05;;;;;;;5.28;56.59;100370.38;5058161;28;20097;-79
2022/03/20 08:37:44;;;;;;;33.80;23.30;;;;;;;5.25;56.62;100365.41;5062238;28;20021;-79
2022/03/20 08:40:19;;;;;;;36.65;23.90;;;;;;;5.31;55.99;100368.19;5070087;28;20044;-79
2022/03/20 08:42:47;;;;;;;43.55;24.50;;;;;;;5.41;56.30;100375.91;5061474;28;20037;-79
2022/03/20 08:45:12;;;;;;;36.08;22.50;;;;;;;5.47;56.76;100379.66;5057643;28;20025;-79
2022/03/20 08:47:39;;;;;;;40.58;23.30;;;;;;;5.39;56.67;100362.00;5056677;28;20032;-79
2022/03/20 08:50:05;;;;;;;36.78;22.80;;;;;;;5.48;56.62;100371.53;5075925;28;20119;-79
2022/03/20 08:52:30;;;;;;;39.67;23.25;;;;;;;5.54;56.18;100375.28;5060776;28;20466;-79
2022/03/20 08:54:56;;;;;;;38.15;23.08;;;;;;;5.61;56.47;100379.72;5069909;28;20115;-79
2022/03/20 08:57:28;;;;;;;37.03;22.33;;;;;;;5.67;56.08;100373.69;5032179;28;20029;-79
2022/03/20 08:59:54;;;;;;;44.55;23.95;;;;;;;5.60;55.73;100359.50;5060641;28;20388;-78
2022/03/20 09:02:20;;;;;;;37.50;23.30;;;;;;;5.69;56.29;100362.91;5060612;28;20028;-79
2022/03/20 09:04:45;;;;;;;37.25;23.10;;;;;;;5.79;55.67;100374.88;5058216;28;20056;-79
2022/03/20 09:07:10;;;;;;;42.70;23.17;;;;;;;5.83;55.12;100359.47;5041896;28;20135;-79
2022/03/20 09:09:37;;;;;;;37.30;23.70;;;;;;;5.88;55.31;100365.06;5059235;28;20028;-79
2022/03/20 09:12:02;;;;;;;38.72;24.40;;;;;;;5.91;55.13;100368.19;5046137;28;20914;-78
2022/03/20 09:14:28;;;;;;;37.22;23.63;;;;;;;5.85;54.85;100349.53;5061883;28;20052;-79
2022/03/20 09:19:37;;;;;;;40.17;23.92;;;;;;;5.99;54.95;100354.84;5063013;28;20082;-78
2022/03/20 09:22:06;;;;;;;37.63;24.00;;;;;;;6.03;54.36;100342.03;5046927;28;20111;-78
2022/03/20 09:24:32;;;;;;;39.42;23.27;;;;;;;6.05;54.08;100345.31;5056292;28;20036;-78
2022/03/20 09:26:57;;;;;;;38.63;23.55;;;;;;;6.10;54.13;100355.38;5046614;28;20087;-78
2022/03/20 09:29:23;;;;;;;40.40;23.10;;;;;;;6.19;54.00;100357.78;5039743;28;20484;-78
2022/03/20 09:31:50;;;;;;;41.17;24.13;;;;;;;6.25;53.89;100356.19;5062877;28;20035;-78
2022/03/20 09:34:16;;;;;;;40.22;23.90;;;;;;;6.24;53.33;100351.94;5062823;28;20031;-78
2022/03/20 09:36:41;;;;;;;45.97;26.50;;;;;;;6.28;53.48;100354.03;5062362;28;20473;-78
2022/03/20 09:39:07;;;;;;;40.85;24.48;;;;;;;6.34;53.27;100365.72;5063873;28;20036;-78
2022/03/20 09:41:33;;;;;;;36.92;23.73;;;;;;;6.44;52.77;100375.06;5046597;28;20467;-78
2022/03/20 09:44:04;;;;;;;40.30;24.80;;;;;;;6.40;52.83;100341.94;5055696;28;20055;-78
2022/03/20 09:46:31;;;;;;;41.42;24.35;;;;;;;6.45;52.13;100347.50;5060572;28;20020;-78
2022/03/20 09:48:57;;;;;;;38.50;24.48;;;;;;;6.51;52.22;100345.97;5065312;28;20063;-78
2022/03/20 09:51:22;;;;;;;44.92;27.40;;;;;;;6.54;52.46;100340.28;5038455;28;20042;-78
2022/03/20 09:53:47;;;;;;;43.72;24.50;;;;;;;6.58;52.98;100339.72;5038119;28;20033;-78
2022/03/20 09:56:13;;;;;;;39.25;24.38;;;;;;;6.67;52.94;100345.72;5044997;28;20024;-78
2022/03/20 09:58:38;;;;;;;38.47;24.08;;;;;;;6.64;53.26;100335.50;5069609;28;20024;-78
2022/03/20 10:01:04;;;;;;;40.10;25.13;;;;;;;6.76;52.52;100334.00;5058797;28;20035;-78
2022/03/20 10:03:29;;;;;;;40.60;24.30;;;;;;;6.83;51.93;100350.81;5058989;28;20036;-78
2022/03/20 10:06:19;;;;;;;46.28;26.95;;;;;;;6.89;52.19;100349.25;5062935;28;20074;-78
2022/03/20 10:08:58;;;;;;;44.78;23.92;;;;;;;6.99;52.15;100355.09;5061957;28;20365;-79
2022/03/20 10:11:25;;;;;;;40.75;24.88;;;;;;;7.05;52.07;100355.16;5062846;28;20029;-78
2022/03/20 10:14:15;;;;;;;41.05;24.75;;;;;;;7.11;51.49;100350.91;5061469;28;20042;-78
2022/03/20 10:16:55;;;;;;;42.15;24.80;;;;;;;7.17;52.23;100350.97;5055703;28;20577;-78
2022/03/20 10:19:23;;;;;;;45.20;22.90;;;;;;;7.29;51.72;100365.41;5067277;28;20115;-78
2022/03/20 10:21:52;;;;;;;36.78;23.35;;;;;;;7.29;51.68;100348.63;5059180;28;20028;-78
2022/03/20 10:24:20;;;;;;;38.92;23.38;;;;;;;7.38;52.05;100358.94;5067473;28;20030;-79
2022/03/20 10:26:59;;;;;;;39.20;23.58;;;;;;;7.41;51.08;100353.25;5056755;28;20048;-78
2022/03/20 10:29:24;;;;;;;38.50;24.63;;;;;;;7.53;51.34;100357.00;5062303;28;20080;-78
2022/03/20 10:31:51;;;;;;;36.15;22.90;;;;;;;7.61;51.54;100356.06;5057912;28;20040;-78
2022/03/20 10:34:17;;;;;;;41.58;25.15;;;;;;;7.66;50.75;100344.88;5051782;28;20020;-78
2022/03/20 10:36:43;;;;;;;35.88;23.23;;;;;;;7.77;51.07;100349.66;5047565;28;20028;-78
2022/03/20 10:39:19;;;;;;;38.25;23.83;;;;;;;7.78;51.46;100333.50;5053280;28;20020;-78
2022/03/20 10:41:45;;;;;;;38.00;22.77;;;;;;;7.79;51.04;100334.31;5049138;28;20035;-78
2022/03/20 10:44:16;;;;;;;39.25;24.45;;;;;;;7.83;51.05;100338.22;5061734;28;20480;-78
2022/03/20 10:46:43;;;;;;;42.20;23.63;;;;;;;7.86;51.26;100324.56;5049214;28;20036;-78
2022/03/20 10:49:18;;;;;;;36.20;24.08;;;;;;;7.90;51.71;100331.13;5088251;28;20033;-78
2022/03/20 10:51:43;;;;;;;35.60;24.42;;;;;;;7.94;50.14;100343.00;5066849;28;20028;-78
2022/03/20 10:54:14;;;;;;;36.05;22.95;;;;;;;7.98;50.34;100334.47;5065147;28;20115;-79
2022/03/20 10:56:55;;;;;;;42.17;23.55;;;;;;;8.08;49.90;100326.13;5052684;28;20036;-78
2022/03/20 10:59:21;;;;;;;34.97;22.55;;;;;;;8.15;49.55;100326.97;5064641;28;20054;-78
2022/03/20 11:01:47;;;;;;;36.63;23.80;;;;;;;8.19;49.76;100336.22;5034315;28;20059;-78
2022/03/20 11:04:15;;;;;;;41.67;24.55;;;;;;;8.19;50.13;100334.38;5064625;28;20040;-78
2022/03/20 11:06:54;;;;;;;34.92;22.88;;;;;;;8.24;51.52;100336.44;5057174;28;20037;-78
2022/03/20 11:09:20;;;;;;;38.20;23.25;;;;;;;8.23;51.86;100324.97;5065485;28;20073;-78
2022/03/20 11:11:49;;;;;;;36.05;21.58;;;;;;;8.30;51.35;100333.84;5057961;28;20401;-77
2022/03/20 11:14:15;;;;;;;33.22;23.60;;;;;;;8.39;52.08;100320.41;5060139;28;20029;-78
2022/03/20 11:16:42;;;;;;;37.47;22.77;;;;;;;8.45;52.12;100319.59;5064647;28;20036;-78
2022/03/20 11:19:12;;;;;;;35.75;22.17;;;;;;;8.51;51.28;100322.28;5068730;28;20060;-78
2022/03/20 11:21:40;;;;;;;43.97;23.50;;;;;;;8.64;49.39;100318.84;5061145;28;20025;-78
2022/03/20 11:24:06;;;;;;;39.97;23.65;;;;;;;8.83;50.02;100324.22;5062672;28;20033;-79
2022/03/20 11:26:34;;;;;;;39.70;22.50;;;;;;;8.93;48.86;100319.31;5057661;28;20056;-80
2022/03/20 11:29:04;;;;;;;33.22;22.52;;;;;;;9.04;48.01;100308.06;5053694;28;20469;-81
2022/03/20 11:31:34;;;;;;;40.53;25.08;;;;;;;9.20;48.36;100309.53;5044139;28;20059;-80
2022/03/20 11:34:05;;;;;;;35.92;22.50;;;;;;;9.30;48.32;100309.16;5078151;28;20021;-79
2022/03/20 11:36:31;;;;;;;42.58;24.08;;;;;;;9.34;47.33;100307.72;5066270;28;20032;-80
2022/03/20 11:39:11;;;;;;;47.95;23.20;;;;;;;9.46;47.49;100320.22;5061933;28;20033;-80
2022/03/20 11:41:37;;;;;;;36.00;23.05;;;;;;;9.52;46.56;100310.59;5063550;28;20460;-79
2022/03/20 11:44:15;;;;;;;35.95;22.67;;;;;;;9.51;47.22;100301.75;5063188;28;20115;-79
2022/03/20 11:46:43;;;;;;;36.25;22.95;;;;;;;9.54;47.50;100301.38;5054091;28;20044;-79
2022/03/20 11:49:16;;;;;;;34.90;22.55;;;;;;;9.62;47.85;100310.97;5048522;28;20028;-79